Terminal Aerodrome Forecast
Issued by NWS

Home | Current Version | Previous Version | Text Only | Print | Product List | Glossary Off
Versions: 1 2 3 4 5 6 7 8 9 10 11 12

000
FTUS45 KGGW 241724
TAFGDV
TAF
KGDV 241724Z 2418/2518 03005KT P6SM BKN009
     FM242300 04010KT P6SM BKN023
     FM251700 04012KT P6SM BKN035=

USA.gov is the U.S. government's official web portal to all federal, state and local government web resources and services.